createdAt,value
2023-05-23T00:01:31.947Z,17.60
2023-05-23T00:03:59.009Z,17.50
2023-05-23T00:06:26.869Z,17.50
2023-05-23T00:08:53.841Z,17.50
2023-05-23T00:11:23.949Z,17.60
2023-05-23T00:13:51.400Z,17.60
2023-05-23T00:16:18.240Z,17.60
2023-05-23T00:18:45.863Z,17.60
2023-05-23T00:21:16.091Z,17.60
2023-05-23T00:23:43.406Z,17.60
2023-05-23T00:26:10.659Z,17.50
2023-05-23T00:28:38.401Z,17.50
2023-05-23T00:31:05.204Z,17.40
2023-05-23T00:33:33.355Z,17.30
2023-05-23T00:36:03.186Z,17.20
2023-05-23T00:38:30.039Z,17.20
2023-05-23T00:40:56.828Z,17.20
2023-05-23T00:43:23.865Z,17.20
2023-05-23T00:45:50.612Z,17.20
2023-05-23T00:48:18.191Z,17.00
2023-05-23T00:50:45.907Z,16.90
2023-05-23T00:53:13.256Z,16.90
2023-05-23T00:55:40.275Z,16.80
2023-05-23T00:58:07.260Z,16.70
2023-05-23T01:00:34.813Z,16.70
2023-05-23T01:03:01.722Z,16.70
2023-05-23T01:05:28.620Z,16.70
2023-05-23T01:07:55.785Z,16.80
2023-05-23T01:10:31.155Z,16.80
2023-05-23T01:13:06.787Z,16.90
2023-05-23T01:15:42.493Z,17.00
2023-05-23T01:18:43.843Z,17.10
2023-05-23T01:21:16.187Z,17.10
2023-05-23T01:24:06.505Z,17.00
2023-05-23T01:27:10.167Z,17.00
2023-05-23T01:29:47.063Z,16.90
2023-05-23T01:32:15.910Z,16.80
2023-05-23T01:34:43.848Z,16.60
2023-05-23T01:37:11.608Z,16.70
2023-05-23T01:39:38.780Z,16.80
2023-05-23T01:42:06.029Z,16.80
2023-05-23T01:44:34.873Z,16.80
2023-05-23T01:47:04.001Z,16.50
2023-05-23T01:49:31.813Z,16.70
2023-05-23T01:52:01.306Z,16.60
2023-05-23T01:54:29.666Z,16.70
2023-05-23T01:57:00.220Z,16.70
2023-05-23T01:59:27.284Z,16.80
2023-05-23T02:01:57.457Z,16.90
2023-05-23T02:04:24.218Z,16.90
2023-05-23T02:06:51.000Z,16.90
2023-05-23T02:09:17.847Z,16.90
2023-05-23T02:11:44.646Z,16.70
2023-05-23T02:14:12.953Z,16.70
2023-05-23T02:16:40.045Z,16.60
2023-05-23T02:19:06.952Z,16.50
2023-05-23T02:21:35.510Z,16.50
2023-05-23T02:24:02.585Z,16.50
2023-05-23T02:26:29.316Z,16.50
2023-05-23T02:28:56.288Z,16.50
2023-05-23T02:31:23.516Z,16.50
2023-05-23T02:33:50.457Z,16.50
2023-05-23T02:36:17.219Z,16.40
2023-05-23T02:38:44.011Z,16.50
2023-05-23T02:41:10.830Z,16.50
2023-05-23T02:43:38.418Z,16.70
2023-05-23T02:46:05.559Z,16.80
2023-05-23T02:48:32.438Z,17.00
2023-05-23T02:50:59.424Z,17.10
2023-05-23T02:53:26.356Z,17.20
2023-05-23T02:55:53.096Z,17.20
2023-05-23T02:58:20.756Z,17.10
2023-05-23T03:00:47.602Z,17.00
2023-05-23T03:03:14.461Z,17.00
2023-05-23T03:05:42.240Z,17.10
2023-05-23T03:08:09.327Z,17.10
2023-05-23T03:10:36.419Z,17.00
2023-05-23T03:13:03.750Z,16.90
2023-05-23T03:15:30.773Z,17.00
2023-05-23T03:17:57.670Z,17.10
2023-05-23T03:20:24.609Z,17.10
2023-05-23T03:22:51.579Z,17.20
2023-05-23T03:25:18.512Z,17.10
2023-05-23T03:27:45.795Z,16.90
2023-05-23T03:30:13.488Z,16.90
2023-05-23T03:32:40.525Z,17.00
2023-05-23T03:35:08.081Z,16.90
2023-05-23T03:37:35.186Z,16.80
2023-05-23T03:40:02.082Z,16.80
2023-05-23T03:42:29.247Z,16.80
2023-05-23T03:44:56.949Z,16.80
2023-05-23T03:47:24.578Z,16.80
2023-05-23T03:49:51.646Z,16.70
2023-05-23T03:52:18.851Z,16.70
2023-05-23T03:54:46.173Z,16.70
2023-05-23T03:57:13.120Z,16.70
2023-05-23T03:59:40.168Z,16.70
2023-05-23T04:02:07.143Z,16.60
2023-05-23T04:04:34.510Z,16.60
2023-05-23T04:07:01.927Z,16.70
2023-05-23T04:09:28.857Z,16.60
2023-05-23T04:11:56.148Z,16.60
2023-05-23T04:14:24.416Z,16.50
2023-05-23T04:16:51.334Z,16.50
2023-05-23T04:19:18.307Z,16.50
2023-05-23T04:21:45.327Z,16.50
2023-05-23T04:24:12.150Z,16.60
2023-05-23T04:26:39.568Z,16.60
2023-05-23T04:29:06.610Z,16.60
2023-05-23T04:31:34.387Z,16.60
2023-05-23T04:34:02.501Z,16.60
2023-05-23T04:36:30.283Z,16.60
2023-05-23T04:38:57.167Z,16.70
2023-05-23T04:41:24.113Z,16.70
2023-05-23T04:43:54.271Z,16.60
2023-05-23T04:46:27.188Z,16.70
2023-05-23T04:48:55.233Z,16.70
2023-05-23T04:51:22.399Z,16.80
2023-05-23T04:53:50.381Z,16.70
2023-05-23T04:56:18.602Z,16.70
2023-05-23T04:58:48.228Z,16.70
2023-05-23T05:01:15.749Z,16.80
2023-05-23T05:03:42.714Z,16.80
2023-05-23T05:06:09.570Z,16.80
2023-05-23T05:08:36.806Z,16.80
2023-05-23T05:11:03.531Z,16.90
2023-05-23T05:13:30.349Z,17.00
2023-05-23T05:15:57.120Z,16.90
2023-05-23T05:18:23.808Z,16.80
2023-05-23T05:20:50.844Z,16.80
2023-05-23T05:23:17.940Z,16.90
2023-05-23T05:25:44.958Z,16.80
2023-05-23T05:28:11.682Z,16.90
2023-05-23T05:30:39.118Z,16.80
2023-05-23T05:33:07.688Z,16.90
2023-05-23T05:35:35.307Z,16.90
2023-05-23T05:38:05.868Z,16.90
2023-05-23T05:40:32.973Z,16.90
2023-05-23T05:42:59.745Z,17.00
2023-05-23T05:45:26.705Z,17.00
2023-05-23T05:47:53.497Z,17.20
2023-05-23T05:50:20.424Z,17.20
2023-05-23T05:52:47.347Z,17.30
2023-05-23T05:55:14.212Z,17.30
2023-05-23T05:57:41.478Z,17.20
2023-05-23T06:00:13.611Z,17.20
2023-05-23T06:02:44.049Z,17.30
2023-05-23T06:05:16.286Z,17.30
2023-05-23T06:07:43.990Z,17.20
2023-05-23T06:10:13.985Z,17.30
2023-05-23T06:12:41.052Z,17.40
2023-05-23T06:15:09.687Z,17.50
2023-05-23T06:17:36.596Z,17.50
2023-05-23T06:20:05.008Z,17.60
2023-05-23T06:22:31.925Z,17.50
2023-05-23T06:24:58.994Z,17.40
2023-05-23T06:27:25.708Z,17.30
2023-05-23T06:29:52.462Z,17.30
2023-05-23T06:32:19.568Z,17.30
2023-05-23T06:34:46.300Z,17.30
2023-05-23T06:37:13.040Z,17.30
2023-05-23T06:39:39.807Z,17.30
2023-05-23T06:42:06.920Z,17.40
2023-05-23T06:44:33.669Z,17.40
2023-05-23T06:47:00.738Z,17.30
2023-05-23T06:49:27.489Z,17.30
2023-05-23T06:51:54.524Z,17.30
2023-05-23T06:54:21.428Z,17.30
2023-05-23T06:56:48.212Z,17.30
2023-05-23T06:59:14.998Z,17.40
2023-05-23T07:01:41.802Z,17.40
2023-05-23T07:04:08.663Z,17.50
2023-05-23T07:06:36.531Z,17.60
2023-05-23T07:09:04.176Z,17.70
2023-05-23T07:11:31.145Z,17.70
2023-05-23T07:13:58.951Z,17.90
2023-05-23T07:16:25.838Z,17.70
2023-05-23T07:18:52.742Z,17.80
2023-05-23T07:21:19.539Z,18.00
2023-05-23T07:23:46.263Z,17.90
2023-05-23T07:26:13.174Z,17.80
2023-05-23T07:28:40.080Z,18.00
2023-05-23T07:31:08.131Z,18.20
2023-05-23T07:33:35.442Z,18.10
2023-05-23T07:36:02.231Z,18.10
2023-05-23T07:38:28.942Z,18.10
2023-05-23T07:41:10.126Z,18.20
2023-05-23T07:43:39.119Z,18.40
2023-05-23T07:46:05.945Z,18.40
2023-05-23T07:48:34.618Z,18.50
2023-05-23T07:51:01.482Z,18.70
2023-05-23T07:53:28.309Z,19.00
2023-05-23T07:55:55.027Z,19.20
2023-05-23T07:58:23.180Z,18.90
2023-05-23T08:00:52.478Z,18.80
2023-05-23T08:03:19.889Z,18.70
2023-05-23T08:05:47.530Z,18.90
2023-05-23T08:08:14.314Z,18.60
2023-05-23T08:10:41.393Z,18.90
2023-05-23T08:13:10.343Z,19.00
2023-05-23T08:15:37.430Z,19.20
2023-05-23T08:18:05.261Z,19.20
2023-05-23T08:20:32.464Z,19.40
2023-05-23T08:23:03.198Z,19.30
2023-05-23T08:25:30.662Z,19.20
2023-05-23T08:28:01.290Z,19.20
2023-05-23T08:30:29.096Z,19.00
2023-05-23T08:32:56.960Z,18.90
2023-05-23T08:35:24.416Z,19.00
2023-05-23T08:37:52.369Z,19.00
2023-05-23T08:40:22.452Z,18.80
2023-05-23T08:42:50.933Z,18.70
2023-05-23T08:45:18.223Z,18.70
2023-05-23T08:47:46.403Z,18.40
2023-05-23T08:50:14.614Z,18.60
2023-05-23T08:53:00.078Z,18.20
2023-05-23T08:55:28.551Z,18.10
2023-05-23T08:57:57.684Z,18.00
2023-05-23T09:00:26.512Z,17.70
2023-05-23T09:02:54.667Z,17.80
2023-05-23T09:05:22.652Z,17.70
2023-05-23T09:07:51.445Z,17.90
2023-05-23T09:10:22.572Z,17.80
2023-05-23T09:12:49.880Z,17.80
2023-05-23T09:15:17.338Z,17.90
2023-05-23T09:17:45.119Z,17.80
2023-05-23T09:20:14.656Z,17.80
2023-05-23T09:22:45.988Z,17.70
2023-05-23T09:25:12.925Z,17.80
2023-05-23T09:27:40.074Z,17.60
2023-05-23T09:30:08.450Z,17.50
2023-05-23T09:32:35.173Z,17.50
2023-05-23T09:35:06.575Z,17.70
2023-05-23T09:37:46.124Z,17.60
2023-05-23T09:40:14.742Z,17.50
2023-05-23T09:42:46.565Z,17.50
2023-05-23T09:45:14.734Z,17.50
2023-05-23T09:47:51.629Z,17.50
2023-05-23T09:50:18.860Z,17.40
2023-05-23T09:52:47.051Z,17.50
2023-05-23T09:55:14.843Z,17.60
2023-05-23T09:57:43.468Z,17.50
2023-05-23T10:00:13.729Z,17.70
2023-05-23T10:03:11.081Z,17.70
2023-05-23T10:05:45.635Z,17.60
2023-05-23T10:08:19.019Z,17.60
2023-05-23T10:10:57.828Z,17.70
2023-05-23T10:13:28.953Z,17.60
2023-05-23T10:16:05.714Z,17.70
2023-05-23T10:18:39.753Z,17.70
2023-05-23T10:21:11.710Z,17.90
2023-05-23T10:23:39.275Z,18.00
2023-05-23T10:26:07.140Z,18.00
2023-05-23T10:28:34.181Z,18.10
2023-05-23T10:31:01.409Z,18.00
2023-05-23T10:33:33.926Z,18.00
2023-05-23T10:36:05.445Z,18.00
2023-05-23T10:38:51.707Z,18.00
2023-05-23T10:41:46.015Z,18.20
2023-05-23T10:44:17.183Z,18.20
2023-05-23T10:46:55.803Z,18.40
2023-05-23T10:49:37.289Z,18.40
2023-05-23T10:52:04.102Z,18.40
2023-05-23T10:54:52.890Z,18.60
2023-05-23T10:57:21.742Z,18.80
2023-05-23T10:59:52.083Z,18.90
2023-05-23T11:02:25.151Z,18.70
2023-05-23T11:05:23.848Z,18.90
2023-05-23T11:08:09.040Z,18.80
2023-05-23T11:10:59.958Z,18.80
2023-05-23T11:13:47.626Z,19.10
2023-05-23T11:16:42.469Z,19.10
2023-05-23T11:19:18.535Z,19.20
2023-05-23T11:21:55.882Z,19.30
2023-05-23T11:24:23.371Z,19.70
2023-05-23T11:27:01.159Z,20.20
2023-05-23T11:29:31.503Z,20.40
2023-05-23T11:31:58.551Z,20.70
2023-05-23T11:34:28.388Z,20.80
2023-05-23T11:36:55.855Z,20.20
2023-05-23T11:39:23.502Z,20.50
2023-05-23T11:42:03.764Z,20.60
2023-05-23T11:44:30.686Z,20.00
2023-05-23T11:47:02.289Z,20.40
2023-05-23T11:49:34.614Z,20.00
2023-05-23T11:52:02.800Z,20.50
2023-05-23T11:54:29.954Z,20.40
2023-05-23T11:56:57.924Z,19.70
2023-05-23T11:59:27.090Z,19.60
2023-05-23T12:01:54.197Z,19.80
2023-05-23T12:04:21.328Z,19.60
2023-05-23T12:06:49.680Z,19.90
2023-05-23T12:09:17.306Z,20.10
2023-05-23T12:11:46.087Z,20.00
2023-05-23T12:14:17.539Z,19.80
2023-05-23T12:16:47.747Z,19.70
2023-05-23T12:19:17.391Z,19.70
2023-05-23T12:21:46.925Z,19.90
2023-05-23T12:24:17.831Z,19.50
2023-05-23T12:26:49.378Z,19.80
2023-05-23T12:29:16.638Z,20.30
2023-05-23T12:31:43.631Z,20.10
2023-05-23T12:34:13.662Z,20.00
2023-05-23T12:36:49.177Z,19.40
2023-05-23T12:39:16.873Z,19.70
2023-05-23T12:41:45.022Z,19.70
2023-05-23T12:44:16.527Z,19.80
2023-05-23T12:46:43.671Z,20.20
2023-05-23T12:49:10.888Z,19.90
2023-05-23T12:51:37.691Z,20.30
2023-05-23T12:54:04.844Z,20.10
2023-05-23T12:56:31.822Z,20.30
2023-05-23T12:58:58.598Z,20.10
2023-05-23T13:01:25.815Z,20.40
2023-05-23T13:03:53.226Z,19.70
2023-05-23T13:06:20.158Z,20.00
2023-05-23T13:08:47.040Z,19.70
2023-05-23T13:11:13.838Z,19.90
2023-05-23T13:13:40.732Z,19.60
2023-05-23T13:16:07.589Z,19.80
2023-05-23T13:18:34.283Z,20.10
2023-05-23T13:21:01.243Z,20.20
2023-05-23T13:23:28.003Z,20.40
2023-05-23T13:25:54.845Z,20.20
2023-05-23T13:28:23.942Z,20.70
2023-05-23T13:30:51.505Z,20.50
2023-05-23T13:33:18.398Z,21.00
2023-05-23T13:35:45.519Z,20.90
2023-05-23T13:38:12.761Z,21.20
2023-05-23T13:40:39.680Z,20.80
2023-05-23T13:43:06.576Z,20.60
2023-05-23T13:45:34.024Z,20.80
2023-05-23T13:48:00.995Z,21.00
2023-05-23T13:50:30.919Z,20.70
2023-05-23T13:52:57.673Z,20.50
2023-05-23T13:55:24.520Z,20.50
2023-05-23T13:57:51.457Z,20.40
2023-05-23T14:00:18.416Z,20.70
2023-05-23T14:02:45.292Z,21.10
2023-05-23T14:05:12.452Z,21.10
2023-05-23T14:07:39.287Z,21.20
2023-05-23T14:10:07.205Z,21.10
2023-05-23T14:12:33.973Z,20.50
2023-05-23T14:15:00.753Z,20.80
2023-05-23T14:17:27.650Z,20.90
2023-05-23T14:19:54.472Z,21.10
2023-05-23T14:22:21.312Z,20.70
2023-05-23T14:24:48.048Z,20.90
2023-05-23T14:27:14.977Z,20.90
2023-05-23T14:29:46.342Z,20.70
2023-05-23T14:32:13.680Z,21.10
2023-05-23T14:34:40.869Z,21.00
2023-05-23T14:37:07.587Z,21.00
2023-05-23T14:39:34.266Z,20.50
2023-05-23T14:42:00.991Z,20.20
2023-05-23T14:44:28.187Z,20.40
2023-05-23T14:46:56.255Z,20.50
2023-05-23T14:49:23.068Z,20.40
2023-05-23T14:51:51.724Z,20.70
2023-05-23T14:54:19.274Z,21.30
2023-05-23T14:56:46.397Z,21.70
2023-05-23T14:59:13.279Z,21.30
2023-05-23T15:01:40.932Z,21.30
2023-05-23T15:04:09.329Z,21.50
2023-05-23T15:06:37.139Z,21.30
2023-05-23T15:09:04.251Z,21.40
2023-05-23T15:11:32.333Z,21.90
2023-05-23T15:13:59.830Z,22.10
2023-05-23T15:16:27.206Z,21.70
2023-05-23T15:18:54.220Z,21.30
2023-05-23T15:21:21.365Z,21.50
2023-05-23T15:23:48.410Z,21.80
2023-05-23T15:26:15.312Z,21.80
2023-05-23T15:28:42.023Z,22.00
2023-05-23T15:31:08.800Z,21.50
2023-05-23T15:33:35.744Z,21.10
2023-05-23T15:36:02.535Z,21.10
2023-05-23T15:38:29.259Z,21.40
2023-05-23T15:40:56.857Z,21.20
2023-05-23T15:43:25.128Z,21.50
2023-05-23T15:45:53.522Z,21.00
2023-05-23T15:48:20.362Z,21.20
2023-05-23T15:50:47.259Z,21.70
2023-05-23T15:53:14.221Z,21.90
2023-05-23T15:55:44.389Z,21.70
2023-05-23T15:58:11.602Z,21.20
2023-05-23T16:00:38.466Z,20.70
2023-05-23T16:03:05.485Z,20.70
2023-05-23T16:05:32.319Z,21.00
2023-05-23T16:07:59.105Z,20.90
2023-05-23T16:10:26.456Z,20.80
2023-05-23T16:12:53.294Z,20.70
2023-05-23T16:15:20.274Z,20.90
2023-05-23T16:17:47.361Z,21.10
2023-05-23T16:20:14.967Z,20.90
2023-05-23T16:22:41.984Z,20.80
2023-05-23T16:25:10.818Z,20.70
2023-05-23T16:27:37.695Z,20.80
2023-05-23T16:30:06.336Z,21.00
2023-05-23T16:32:35.007Z,21.10
2023-05-23T16:35:01.991Z,20.80
2023-05-23T16:37:28.709Z,20.80
2023-05-23T16:39:55.833Z,20.80
2023-05-23T16:42:22.755Z,20.60
2023-05-23T16:44:49.737Z,20.90
2023-05-23T16:47:17.421Z,20.70
2023-05-23T16:49:44.285Z,20.80
2023-05-23T16:52:11.376Z,20.70
2023-05-23T16:54:38.149Z,20.40
2023-05-23T16:57:05.697Z,20.50
2023-05-23T16:59:32.665Z,20.40
2023-05-23T17:01:59.597Z,20.50
2023-05-23T17:04:26.370Z,20.10
2023-05-23T17:06:53.191Z,20.10
2023-05-23T17:09:22.100Z,20.30
2023-05-23T17:11:49.712Z,20.20
2023-05-23T17:14:16.459Z,20.30
2023-05-23T17:16:43.428Z,20.10
2023-05-23T17:19:10.750Z,20.00
2023-05-23T17:21:37.717Z,19.90
2023-05-23T17:24:04.931Z,19.90
2023-05-23T17:26:31.906Z,19.90
2023-05-23T17:28:58.715Z,19.60
2023-05-23T17:31:26.579Z,19.50
2023-05-23T17:33:54.368Z,19.60
2023-05-23T17:36:21.280Z,19.50
2023-05-23T17:38:48.154Z,19.50
2023-05-23T17:41:15.836Z,19.70
2023-05-23T17:43:43.027Z,19.50
2023-05-23T17:46:10.009Z,19.40
2023-05-23T17:48:47.044Z,19.20
2023-05-23T17:51:15.662Z,19.10
2023-05-23T17:53:42.857Z,19.00
2023-05-23T17:56:09.903Z,19.00
2023-05-23T17:58:41.686Z,19.00
2023-05-23T18:01:11.788Z,18.90
2023-05-23T18:03:38.964Z,18.70
2023-05-23T18:06:05.944Z,18.80
2023-05-23T18:08:33.003Z,18.80
2023-05-23T18:11:00.109Z,18.80
2023-05-23T18:13:26.876Z,18.80
2023-05-23T18:15:53.631Z,18.80
2023-05-23T18:18:20.417Z,18.80
2023-05-23T18:20:47.426Z,18.80
2023-05-23T18:23:14.199Z,18.80
2023-05-23T18:25:41.237Z,18.80
2023-05-23T18:28:08.154Z,18.80
2023-05-23T18:30:35.028Z,18.80
2023-05-23T18:33:02.419Z,18.60
2023-05-23T18:35:29.314Z,18.40
2023-05-23T18:37:57.212Z,18.40
2023-05-23T18:40:26.183Z,18.20
2023-05-23T18:42:53.305Z,18.30
2023-05-23T18:45:20.100Z,18.30
2023-05-23T18:47:47.688Z,18.30
2023-05-23T18:50:14.656Z,18.20
2023-05-23T18:52:42.715Z,18.30
2023-05-23T18:55:11.318Z,18.30
2023-05-23T18:57:38.300Z,18.30
2023-05-23T19:00:07.348Z,17.90
2023-05-23T19:02:34.294Z,17.90
2023-05-23T19:05:02.151Z,18.00
2023-05-23T19:07:28.988Z,18.10
2023-05-23T19:09:55.973Z,18.10
2023-05-23T19:12:22.907Z,17.90
2023-05-23T19:14:49.744Z,18.00
2023-05-23T19:17:16.766Z,17.90
2023-05-23T19:19:43.998Z,18.00
2023-05-23T19:22:10.893Z,17.90
2023-05-23T19:24:38.067Z,17.80
2023-05-23T19:27:05.137Z,17.70
2023-05-23T19:29:31.898Z,17.70
2023-05-23T19:31:58.883Z,17.60
2023-05-23T19:34:25.712Z,17.60
2023-05-23T19:36:52.648Z,17.50
2023-05-23T19:39:19.745Z,17.50
2023-05-23T19:41:46.488Z,17.60
2023-05-23T19:44:13.630Z,17.70
2023-05-23T19:46:40.645Z,17.60
2023-05-23T19:49:08.432Z,17.30
2023-05-23T19:51:36.624Z,17.30
2023-05-23T19:54:03.647Z,17.20
2023-05-23T19:56:30.538Z,17.30
2023-05-23T19:58:57.298Z,17.30
2023-05-23T20:01:24.228Z,17.30
2023-05-23T20:03:51.526Z,17.10
2023-05-23T20:06:18.869Z,17.20
2023-05-23T20:08:47.086Z,17.10
2023-05-23T20:11:14.066Z,16.90
2023-05-23T20:13:41.220Z,16.80
2023-05-23T20:16:08.433Z,16.80
2023-05-23T20:18:35.230Z,16.70
2023-05-23T20:21:04.896Z,16.80
2023-05-23T20:23:32.431Z,16.70
2023-05-23T20:25:59.376Z,16.70
2023-05-23T20:28:26.176Z,16.80
2023-05-23T20:30:53.106Z,16.70
2023-05-23T20:33:20.487Z,16.70
2023-05-23T20:35:50.360Z,16.50
2023-05-23T20:38:18.653Z,16.40
2023-05-23T20:40:46.295Z,16.30
2023-05-23T20:43:15.045Z,16.30
2023-05-23T20:45:42.205Z,16.40
2023-05-23T20:48:09.660Z,16.40
2023-05-23T20:50:36.753Z,16.50
2023-05-23T20:53:03.693Z,16.40
2023-05-23T20:55:30.546Z,16.30
2023-05-23T20:57:57.395Z,16.30
2023-05-23T21:00:24.355Z,16.40
2023-05-23T21:02:51.562Z,16.20
2023-05-23T21:05:18.467Z,16.50
2023-05-23T21:07:45.425Z,16.40
2023-05-23T21:10:14.993Z,16.50
2023-05-23T21:12:49.224Z,16.50
2023-05-23T21:15:16.878Z,16.20
2023-05-23T21:17:43.823Z,16.30
2023-05-23T21:20:11.507Z,16.00
2023-05-23T21:22:38.313Z,16.00
2023-05-23T21:25:06.183Z,15.90
2023-05-23T21:27:32.972Z,15.60
2023-05-23T21:29:59.704Z,15.60
2023-05-23T21:32:26.664Z,15.60
2023-05-23T21:34:53.427Z,15.60
2023-05-23T21:37:20.376Z,15.60
2023-05-23T21:39:51.807Z,15.60
2023-05-23T21:42:20.096Z,15.50
2023-05-23T21:44:46.991Z,15.30
2023-05-23T21:47:13.949Z,15.00
2023-05-23T21:49:40.741Z,15.20
2023-05-23T21:52:07.601Z,15.20
2023-05-23T21:54:34.485Z,15.40
2023-05-23T21:57:01.399Z,15.30
2023-05-23T21:59:28.276Z,15.40
2023-05-23T22:01:55.030Z,15.30
2023-05-23T22:04:21.986Z,15.20
2023-05-23T22:06:48.972Z,15.00
2023-05-23T22:09:15.746Z,14.90
2023-05-23T22:11:43.028Z,14.70
2023-05-23T22:14:10.136Z,14.90
2023-05-23T22:16:39.823Z,15.20
2023-05-23T22:19:09.002Z,15.10
2023-05-23T22:21:36.772Z,15.00
2023-05-23T22:24:03.896Z,15.10
2023-05-23T22:26:30.698Z,15.00
2023-05-23T22:28:57.700Z,14.70
2023-05-23T22:31:24.629Z,14.60
2023-05-23T22:33:51.823Z,14.80
2023-05-23T22:36:18.679Z,14.90
2023-05-23T22:38:45.986Z,15.00
2023-05-23T22:41:12.821Z,15.10
2023-05-23T22:43:39.817Z,15.10
2023-05-23T22:46:07.171Z,15.00
2023-05-23T22:48:34.494Z,14.80
2023-05-23T22:51:02.446Z,14.60
2023-05-23T22:53:29.776Z,14.70
2023-05-23T22:55:57.489Z,14.70
2023-05-23T22:58:24.280Z,14.70
2023-05-23T23:00:51.363Z,14.80
2023-05-23T23:03:18.302Z,14.60
2023-05-23T23:05:45.224Z,14.70
2023-05-23T23:08:12.386Z,14.80
2023-05-23T23:10:40.380Z,14.60
2023-05-23T23:13:07.315Z,14.90
2023-05-23T23:15:34.199Z,14.80
2023-05-23T23:18:01.561Z,14.80
2023-05-23T23:20:28.656Z,14.60
2023-05-23T23:22:56.040Z,14.60
2023-05-23T23:25:23.173Z,14.50
2023-05-23T23:27:49.917Z,14.70
2023-05-23T23:30:16.724Z,14.50
2023-05-23T23:32:43.440Z,14.50
2023-05-23T23:35:10.174Z,14.50
2023-05-23T23:37:37.145Z,14.10
2023-05-23T23:40:05.265Z,14.10
2023-05-23T23:42:31.992Z,14.10
2023-05-23T23:44:58.901Z,14.20
2023-05-23T23:47:25.930Z,14.10
2023-05-23T23:49:53.002Z,14.00
2023-05-23T23:52:19.681Z,14.20
2023-05-23T23:54:46.446Z,14.10
2023-05-23T23:57:14.120Z,14.30
2023-05-23T23:59:44.152Z,14.50
